Portada
METAR-TAF:

METAR-TAF

Aeroports :

Aeroport Internacional Amata Kabua

Majuro, Illes Marshall

latitud: 07-04N, longitud: 171-17E, altitud: 2 m

Observació

L'informe es va fer fa 3 hores i 45 minuts, a les 23:50 UTC
Vent 14 kt del Est/Nord-Est
Temperatura 30°C
Humitat 75%
Pressió 1012 hPa
Visibilitat: 24.1 km
Escasses núvols a una alçada de 1500 ft
Núvols disperses a una alçada de 5000 ft
Cel ennuvolat a una alçada de 30000 ft

METAR: PKMJ 172350Z 06014KT 15SM FEW015 SCT050 BKN300 30/25 A2988 RMK LAST

Hora: 15:35 (03:35 UTC)

Pronòstic

L'informe es va fer fa 3 hores i 56 minuts, a les 23:39 UTC
Pronòstic vàlid del 18 a les 00 UTC al 18 a les 24 UTC
Vent 10 kt del Est
Visibilitat: 10 km
Escasses núvols a una alçada de 1600 ft
Núvols disperses a una alçada de 5000 ft
Núvols disperses a una alçada de 12000 ft
xàfecs en les proximitats

TAF: PKMJ 172339Z 1800/1824 09010KT P6SM VCSH FEW016 SCT050 SCT120

Observacions i pronòstics meteorològics de més de 4000 aeroports (METAR i TAF).

Les estacions disponibles són els punts grocs i vermells al mapa.

Posi el ratolí al punt desitjat per veure el nom de l'estació.

Feu clic per veure les observacions i els pronòstics meteorològics.

Per canviar el mapa: feu clic els botons verds amb una creu de color negre per apropar; al botó verd amb un guió per allunyar la imatge; o en les fletxes verdes per a mapes adjacents.


METAR-TAF: